sensor_id;sensor_type;location;lat;lon;timestamp;P1;durP1;ratioP1;P2;durP2;ratioP2
42702;SDS011;28341;52.064;4.920;2023-07-20T00:01:01;27.70;;;21.67;;
42702;SDS011;28341;52.064;4.920;2023-07-20T00:03:14;24.13;;;19.20;;
42702;SDS011;28341;52.064;4.920;2023-07-20T00:05:23;26.75;;;20.38;;
42702;SDS011;28341;52.064;4.920;2023-07-20T00:07:27;28.50;;;22.60;;
42702;SDS011;28341;52.064;4.920;2023-07-20T00:09:31;26.13;;;19.77;;
42702;SDS011;28341;52.064;4.920;2023-07-20T00:11:36;24.55;;;19.83;;
42702;SDS011;28341;52.064;4.920;2023-07-20T00:13:40;21.95;;;17.02;;
42702;SDS011;28341;52.064;4.920;2023-07-20T00:15:44;22.70;;;17.05;;
42702;SDS011;28341;52.064;4.920;2023-07-20T00:17:48;17.92;;;16.02;;
42702;SDS011;28341;52.064;4.920;2023-07-20T00:19:55;23.65;;;18.20;;
42702;SDS011;28341;52.064;4.920;2023-07-20T00:21:59;22.58;;;16.52;;
42702;SDS011;28341;52.064;4.920;2023-07-20T00:24:00;16.58;;;14.80;;
42702;SDS011;28341;52.064;4.920;2023-07-20T00:26:04;22.55;;;18.02;;
42702;SDS011;28341;52.064;4.920;2023-07-20T00:28:08;21.67;;;17.73;;
42702;SDS011;28341;52.064;4.920;2023-07-20T00:30:13;19.08;;;16.17;;
42702;SDS011;28341;52.064;4.920;2023-07-20T00:32:17;18.98;;;16.35;;
42702;SDS011;28341;52.064;4.920;2023-07-20T00:34:21;21.27;;;14.65;;
42702;SDS011;28341;52.064;4.920;2023-07-20T00:36:30;17.45;;;15.65;;
42702;SDS011;28341;52.064;4.920;2023-07-20T00:38:36;19.38;;;15.93;;
42702;SDS011;28341;52.064;4.920;2023-07-20T00:40:41;18.02;;;15.38;;
42702;SDS011;28341;52.064;4.920;2023-07-20T00:42:45;18.92;;;15.88;;
42702;SDS011;28341;52.064;4.920;2023-07-20T00:44:55;21.70;;;16.85;;
42702;SDS011;28341;52.064;4.920;2023-07-20T00:46:57;19.08;;;16.45;;
42702;SDS011;28341;52.064;4.920;2023-07-20T00:49:01;18.25;;;16.35;;
42702;SDS011;28341;52.064;4.920;2023-07-20T00:51:06;17.02;;;15.00;;
42702;SDS011;28341;52.064;4.920;2023-07-20T00:53:13;19.55;;;16.08;;
42702;SDS011;28341;52.064;4.920;2023-07-20T00:55:17;15.65;;;13.73;;
42702;SDS011;28341;52.064;4.920;2023-07-20T00:57:22;13.98;;;12.57;;
42702;SDS011;28341;52.064;4.920;2023-07-20T00:59:27;12.43;;;10.63;;
42702;SDS011;28341;52.064;4.920;2023-07-20T01:01:31;13.48;;;12.07;;
42702;SDS011;28341;52.064;4.920;2023-07-20T01:03:36;14.52;;;13.02;;
42702;SDS011;28341;52.064;4.920;2023-07-20T01:05:41;13.07;;;11.85;;
42702;SDS011;28341;52.064;4.920;2023-07-20T01:07:53;16.60;;;14.18;;
42702;SDS011;28341;52.064;4.920;2023-07-20T01:10:05;14.68;;;12.50;;
42702;SDS011;28341;52.064;4.920;2023-07-20T01:12:16;13.15;;;11.73;;
42702;SDS011;28341;52.064;4.920;2023-07-20T01:14:25;16.60;;;13.23;;
42702;SDS011;28341;52.064;4.920;2023-07-20T01:16:29;15.57;;;14.05;;
42702;SDS011;28341;52.064;4.920;2023-07-20T01:18:33;18.50;;;12.85;;
42702;SDS011;28341;52.064;4.920;2023-07-20T01:20:37;14.82;;;12.07;;
42702;SDS011;28341;52.064;4.920;2023-07-20T01:22:52;13.27;;;11.80;;
42702;SDS011;28341;52.064;4.920;2023-07-20T01:25:40;10.90;;;9.80;;
42702;SDS011;28341;52.064;4.920;2023-07-20T01:28:09;12.02;;;9.90;;
42702;SDS011;28341;52.064;4.920;2023-07-20T01:30:44;11.57;;;10.30;;
42702;SDS011;28341;52.064;4.920;2023-07-20T01:32:57;13.63;;;11.00;;
42702;SDS011;28341;52.064;4.920;2023-07-20T01:35:02;14.10;;;10.00;;
42702;SDS011;28341;52.064;4.920;2023-07-20T01:37:09;14.43;;;10.45;;
42702;SDS011;28341;52.064;4.920;2023-07-20T01:39:11;11.82;;;9.90;;
42702;SDS011;28341;52.064;4.920;2023-07-20T01:41:15;13.82;;;11.23;;
42702;SDS011;28341;52.064;4.920;2023-07-20T01:43:18;13.25;;;11.18;;
42702;SDS011;28341;52.064;4.920;2023-07-20T01:45:22;13.98;;;10.30;;
42702;SDS011;28341;52.064;4.920;2023-07-20T01:47:27;12.10;;;10.27;;
42702;SDS011;28341;52.064;4.920;2023-07-20T01:49:31;14.52;;;10.52;;
42702;SDS011;28341;52.064;4.920;2023-07-20T01:51:35;12.30;;;10.57;;
42702;SDS011;28341;52.064;4.920;2023-07-20T01:53:39;10.63;;;9.48;;
42702;SDS011;28341;52.064;4.920;2023-07-20T01:55:43;11.50;;;10.02;;
42702;SDS011;28341;52.064;4.920;2023-07-20T01:57:47;10.55;;;9.45;;
42702;SDS011;28341;52.064;4.920;2023-07-20T01:59:51;11.85;;;9.57;;
42702;SDS011;28341;52.064;4.920;2023-07-20T02:01:56;9.25;;;8.07;;
42702;SDS011;28341;52.064;4.920;2023-07-20T02:04:00;12.93;;;8.65;;
42702;SDS011;28341;52.064;4.920;2023-07-20T02:06:06;8.82;;;7.90;;
42702;SDS011;28341;52.064;4.920;2023-07-20T02:08:10;9.23;;;8.25;;
42702;SDS011;28341;52.064;4.920;2023-07-20T02:10:14;11.27;;;8.85;;
42702;SDS011;28341;52.064;4.920;2023-07-20T02:12:19;9.15;;;8.27;;
42702;SDS011;28341;52.064;4.920;2023-07-20T02:14:23;9.90;;;7.97;;
42702;SDS011;28341;52.064;4.920;2023-07-20T02:16:27;10.20;;;7.90;;
42702;SDS011;28341;52.064;4.920;2023-07-20T02:18:31;10.57;;;8.30;;
42702;SDS011;28341;52.064;4.920;2023-07-20T02:20:37;8.93;;;7.88;;
42702;SDS011;28341;52.064;4.920;2023-07-20T02:22:43;9.02;;;7.53;;
42702;SDS011;28341;52.064;4.920;2023-07-20T02:24:47;11.32;;;7.63;;
42702;SDS011;28341;52.064;4.920;2023-07-20T02:26:51;9.57;;;8.07;;
42702;SDS011;28341;52.064;4.920;2023-07-20T02:28:55;11.77;;;9.10;;
42702;SDS011;28341;52.064;4.920;2023-07-20T02:30:59;10.15;;;9.07;;
42702;SDS011;28341;52.064;4.920;2023-07-20T02:33:03;12.30;;;10.00;;
42702;SDS011;28341;52.064;4.920;2023-07-20T02:35:08;14.25;;;9.40;;
42702;SDS011;28341;52.064;4.920;2023-07-20T02:37:10;9.35;;;8.45;;
42702;SDS011;28341;52.064;4.920;2023-07-20T02:39:16;9.57;;;8.38;;
42702;SDS011;28341;52.064;4.920;2023-07-20T02:41:22;10.35;;;9.32;;
42702;SDS011;28341;52.064;4.920;2023-07-20T02:43:26;11.40;;;8.27;;
42702;SDS011;28341;52.064;4.920;2023-07-20T02:45:30;9.68;;;8.25;;
42702;SDS011;28341;52.064;4.920;2023-07-20T02:47:31;8.75;;;7.90;;
42702;SDS011;28341;52.064;4.920;2023-07-20T02:49:35;7.45;;;6.22;;
42702;SDS011;28341;52.064;4.920;2023-07-20T02:51:39;7.30;;;6.40;;
42702;SDS011;28341;52.064;4.920;2023-07-20T02:53:43;10.40;;;8.80;;
42702;SDS011;28341;52.064;4.920;2023-07-20T02:55:50;10.88;;;8.23;;
42702;SDS011;28341;52.064;4.920;2023-07-20T02:57:54;14.95;;;8.27;;
42702;SDS011;28341;52.064;4.920;2023-07-20T02:59:58;9.13;;;8.18;;
42702;SDS011;28341;52.064;4.920;2023-07-20T03:02:04;9.68;;;7.97;;
42702;SDS011;28341;52.064;4.920;2023-07-20T03:04:09;9.30;;;7.65;;
42702;SDS011;28341;52.064;4.920;2023-07-20T03:06:14;9.75;;;7.53;;
42702;SDS011;28341;52.064;4.920;2023-07-20T03:08:18;9.25;;;7.72;;
42702;SDS011;28341;52.064;4.920;2023-07-20T03:10:22;11.15;;;7.95;;
42702;SDS011;28341;52.064;4.920;2023-07-20T03:12:28;8.10;;;7.15;;
42702;SDS011;28341;52.064;4.920;2023-07-20T03:14:30;8.60;;;7.68;;
42702;SDS011;28341;52.064;4.920;2023-07-20T03:16:34;8.70;;;7.90;;
42702;SDS011;28341;52.064;4.920;2023-07-20T03:18:38;9.73;;;8.20;;
42702;SDS011;28341;52.064;4.920;2023-07-20T03:20:42;8.07;;;7.28;;
42702;SDS011;28341;52.064;4.920;2023-07-20T03:22:46;10.23;;;8.45;;
42702;SDS011;28341;52.064;4.920;2023-07-20T03:24:50;9.90;;;8.52;;
42702;SDS011;28341;52.064;4.920;2023-07-20T03:26:55;9.38;;;8.40;;
42702;SDS011;28341;52.064;4.920;2023-07-20T03:29:03;13.98;;;8.93;;
42702;SDS011;28341;52.064;4.920;2023-07-20T03:31:08;9.30;;;8.30;;
42702;SDS011;28341;52.064;4.920;2023-07-20T03:33:14;8.88;;;8.07;;
42702;SDS011;28341;52.064;4.920;2023-07-20T03:35:18;11.55;;;9.27;;
42702;SDS011;28341;52.064;4.920;2023-07-20T03:37:22;9.88;;;8.82;;
42702;SDS011;28341;52.064;4.920;2023-07-20T03:39:26;13.00;;;8.55;;
42702;SDS011;28341;52.064;4.920;2023-07-20T03:41:30;9.38;;;8.43;;
42702;SDS011;28341;52.064;4.920;2023-07-20T03:43:34;10.45;;;7.88;;
42702;SDS011;28341;52.064;4.920;2023-07-20T03:45:41;9.60;;;8.70;;
42702;SDS011;28341;52.064;4.920;2023-07-20T03:47:46;8.32;;;7.57;;
42702;SDS011;28341;52.064;4.920;2023-07-20T03:49:50;9.38;;;8.35;;
42702;SDS011;28341;52.064;4.920;2023-07-20T03:51:54;9.98;;;8.88;;
42702;SDS011;28341;52.064;4.920;2023-07-20T03:53:58;9.10;;;8.10;;
42702;SDS011;28341;52.064;4.920;2023-07-20T03:56:02;11.20;;;9.13;;
42702;SDS011;28341;52.064;4.920;2023-07-20T03:58:04;10.68;;;9.57;;
42702;SDS011;28341;52.064;4.920;2023-07-20T04:00:11;8.65;;;7.93;;
42702;SDS011;28341;52.064;4.920;2023-07-20T04:02:19;10.45;;;9.40;;
42702;SDS011;28341;52.064;4.920;2023-07-20T04:04:23;8.88;;;8.05;;
42702;SDS011;28341;52.064;4.920;2023-07-20T04:06:27;9.70;;;8.80;;
42702;SDS011;28341;52.064;4.920;2023-07-20T04:08:31;9.43;;;8.52;;
42702;SDS011;28341;52.064;4.920;2023-07-20T04:10:35;9.15;;;8.35;;
42702;SDS011;28341;52.064;4.920;2023-07-20T04:12:39;12.35;;;9.00;;
42702;SDS011;28341;52.064;4.920;2023-07-20T04:14:44;11.00;;;9.50;;
42702;SDS011;28341;52.064;4.920;2023-07-20T04:16:48;10.57;;;9.48;;
42702;SDS011;28341;52.064;4.920;2023-07-20T04:18:54;15.10;;;10.93;;
42702;SDS011;28341;52.064;4.920;2023-07-20T04:20:59;11.80;;;10.65;;
42702;SDS011;28341;52.064;4.920;2023-07-20T04:23:03;10.00;;;9.10;;
42702;SDS011;28341;52.064;4.920;2023-07-20T04:25:08;12.18;;;10.95;;
42702;SDS011;28341;52.064;4.920;2023-07-20T04:27:10;13.38;;;11.38;;
42702;SDS011;28341;52.064;4.920;2023-07-20T04:29:14;10.73;;;9.43;;
42702;SDS011;28341;52.064;4.920;2023-07-20T04:31:18;11.00;;;9.90;;
42702;SDS011;28341;52.064;4.920;2023-07-20T04:33:22;13.02;;;11.57;;
42702;SDS011;28341;52.064;4.920;2023-07-20T04:38:06;11.50;;;10.23;;
42702;SDS011;28341;52.064;4.920;2023-07-20T04:40:11;11.90;;;9.73;;
42702;SDS011;28341;52.064;4.920;2023-07-20T04:42:15;13.90;;;10.85;;
42702;SDS011;28341;52.064;4.920;2023-07-20T04:44:20;11.57;;;10.38;;
42702;SDS011;28341;52.064;4.920;2023-07-20T04:46:24;12.98;;;10.35;;
42702;SDS011;28341;52.064;4.920;2023-07-20T04:48:29;12.68;;;11.27;;
42702;SDS011;28341;52.064;4.920;2023-07-20T04:50:33;14.45;;;13.02;;
42702;SDS011;28341;52.064;4.920;2023-07-20T04:52:40;13.43;;;11.93;;
42702;SDS011;28341;52.064;4.920;2023-07-20T04:54:50;15.02;;;12.88;;
42702;SDS011;28341;52.064;4.920;2023-07-20T04:56:54;12.93;;;11.55;;
42702;SDS011;28341;52.064;4.920;2023-07-20T04:58:58;14.45;;;12.00;;
42702;SDS011;28341;52.064;4.920;2023-07-20T05:01:03;15.30;;;13.13;;
42702;SDS011;28341;52.064;4.920;2023-07-20T05:03:09;18.75;;;13.40;;
42702;SDS011;28341;52.064;4.920;2023-07-20T05:05:14;14.95;;;12.98;;
42702;SDS011;28341;52.064;4.920;2023-07-20T05:07:18;18.48;;;15.50;;
42702;SDS011;28341;52.064;4.920;2023-07-20T05:09:25;20.80;;;15.57;;
42702;SDS011;28341;52.064;4.920;2023-07-20T05:11:29;17.63;;;14.70;;
42702;SDS011;28341;52.064;4.920;2023-07-20T05:13:34;18.85;;;16.10;;
42702;SDS011;28341;52.064;4.920;2023-07-20T05:15:38;19.10;;;15.23;;
42702;SDS011;28341;52.064;4.920;2023-07-20T05:17:46;17.80;;;13.93;;
42702;SDS011;28341;52.064;4.920;2023-07-20T05:19:50;14.65;;;13.15;;
42702;SDS011;28341;52.064;4.920;2023-07-20T05:21:55;15.68;;;12.98;;
42702;SDS011;28341;52.064;4.920;2023-07-20T05:23:59;17.33;;;13.13;;
42702;SDS011;28341;52.064;4.920;2023-07-20T05:26:06;15.10;;;12.05;;
42702;SDS011;28341;52.064;4.920;2023-07-20T05:28:10;12.50;;;9.85;;
42702;SDS011;28341;52.064;4.920;2023-07-20T05:30:14;11.18;;;9.50;;
42702;SDS011;28341;52.064;4.920;2023-07-20T05:32:18;11.82;;;8.68;;
42702;SDS011;28341;52.064;4.920;2023-07-20T05:34:22;8.60;;;7.70;;
42702;SDS011;28341;52.064;4.920;2023-07-20T05:36:26;9.15;;;7.43;;
42702;SDS011;28341;52.064;4.920;2023-07-20T05:38:31;10.60;;;7.57;;
42702;SDS011;28341;52.064;4.920;2023-07-20T05:40:36;9.13;;;6.95;;
42702;SDS011;28341;52.064;4.920;2023-07-20T05:42:43;8.95;;;6.30;;
42702;SDS011;28341;52.064;4.920;2023-07-20T05:44:48;6.63;;;4.95;;
42702;SDS011;28341;52.064;4.920;2023-07-20T05:46:50;4.30;;;3.90;;
42702;SDS011;28341;52.064;4.920;2023-07-20T05:48:54;7.97;;;4.05;;
42702;SDS011;28341;52.064;4.920;2023-07-20T05:50:58;4.35;;;3.53;;
42702;SDS011;28341;52.064;4.920;2023-07-20T05:53:02;6.00;;;3.60;;
42702;SDS011;28341;52.064;4.920;2023-07-20T05:55:07;6.47;;;3.63;;
42702;SDS011;28341;52.064;4.920;2023-07-20T05:57:11;5.85;;;3.67;;
42702;SDS011;28341;52.064;4.920;2023-07-20T05:59:18;4.50;;;3.30;;
42702;SDS011;28341;52.064;4.920;2023-07-20T06:01:23;5.40;;;3.58;;
42702;SDS011;28341;52.064;4.920;2023-07-20T06:03:28;5.82;;;4.07;;
42702;SDS011;28341;52.064;4.920;2023-07-20T06:05:33;6.28;;;3.85;;
42702;SDS011;28341;52.064;4.920;2023-07-20T06:07:37;5.85;;;3.03;;
42702;SDS011;28341;52.064;4.920;2023-07-20T06:09:41;3.50;;;2.60;;
42702;SDS011;28341;52.064;4.920;2023-07-20T06:11:43;3.53;;;2.60;;
42702;SDS011;28341;52.064;4.920;2023-07-20T06:13:47;2.95;;;1.95;;
42702;SDS011;28341;52.064;4.920;2023-07-20T06:15:53;4.43;;;2.13;;
42702;SDS011;28341;52.064;4.920;2023-07-20T06:17:58;4.82;;;1.90;;
42702;SDS011;28341;52.064;4.920;2023-07-20T06:20:02;4.45;;;2.15;;
42702;SDS011;28341;52.064;4.920;2023-07-20T06:22:07;6.90;;;1.90;;
42702;SDS011;28341;52.064;4.920;2023-07-20T06:24:12;3.15;;;1.75;;
42702;SDS011;28341;52.064;4.920;2023-07-20T06:26:15;4.10;;;1.90;;
42702;SDS011;28341;52.064;4.920;2023-07-20T06:28:20;2.38;;;1.50;;
42702;SDS011;28341;52.064;4.920;2023-07-20T06:30:24;2.78;;;1.80;;
42702;SDS011;28341;52.064;4.920;2023-07-20T06:32:30;4.68;;;2.20;;
42702;SDS011;28341;52.064;4.920;2023-07-20T06:34:34;2.80;;;2.03;;
42702;SDS011;28341;52.064;4.920;2023-07-20T06:36:38;3.95;;;2.28;;
42702;SDS011;28341;52.064;4.920;2023-07-20T06:38:42;6.15;;;4.68;;
42702;SDS011;28341;52.064;4.920;2023-07-20T06:40:46;5.35;;;2.25;;
42702;SDS011;28341;52.064;4.920;2023-07-20T06:42:50;2.92;;;1.63;;
42702;SDS011;28341;52.064;4.920;2023-07-20T06:44:56;5.10;;;2.60;;
42702;SDS011;28341;52.064;4.920;2023-07-20T06:47:00;5.32;;;1.60;;
42702;SDS011;28341;52.064;4.920;2023-07-20T06:49:08;1.75;;;1.20;;
42702;SDS011;28341;52.064;4.920;2023-07-20T06:51:12;2.10;;;0.80;;
42702;SDS011;28341;52.064;4.920;2023-07-20T06:53:16;1.65;;;0.90;;
42702;SDS011;28341;52.064;4.920;2023-07-20T06:55:20;3.10;;;1.40;;
42702;SDS011;28341;52.064;4.920;2023-07-20T06:57:24;2.67;;;1.23;;
42702;SDS011;28341;52.064;4.920;2023-07-20T06:59:29;2.22;;;0.90;;
42702;SDS011;28341;52.064;4.920;2023-07-20T07:01:32;2.72;;;1.00;;
42702;SDS011;28341;52.064;4.920;2023-07-20T07:03:36;2.65;;;0.77;;
42702;SDS011;28341;52.064;4.920;2023-07-20T07:05:43;5.72;;;1.10;;
42702;SDS011;28341;52.064;4.920;2023-07-20T07:07:48;2.67;;;0.60;;
42702;SDS011;28341;52.064;4.920;2023-07-20T07:09:52;3.25;;;1.00;;
42702;SDS011;28341;52.064;4.920;2023-07-20T07:11:56;2.55;;;1.00;;
42702;SDS011;28341;52.064;4.920;2023-07-20T07:14:00;2.05;;;0.80;;
42702;SDS011;28341;52.064;4.920;2023-07-20T07:16:01;3.22;;;0.93;;
42702;SDS011;28341;52.064;4.920;2023-07-20T07:18:06;1.35;;;0.90;;
42702;SDS011;28341;52.064;4.920;2023-07-20T07:20:10;2.33;;;1.20;;
42702;SDS011;28341;52.064;4.920;2023-07-20T07:22:17;1.58;;;0.90;;
42702;SDS011;28341;52.064;4.920;2023-07-20T07:24:21;2.65;;;0.93;;
42702;SDS011;28341;52.064;4.920;2023-07-20T07:26:25;1.90;;;0.80;;
42702;SDS011;28341;52.064;4.920;2023-07-20T07:28:29;2.70;;;0.93;;
42702;SDS011;28341;52.064;4.920;2023-07-20T07:30:34;37.83;;;33.83;;
42702;SDS011;28341;52.064;4.920;2023-07-20T07:32:38;2.00;;;1.35;;
42702;SDS011;28341;52.064;4.920;2023-07-20T07:34:43;2.47;;;0.85;;
42702;SDS011;28341;52.064;4.920;2023-07-20T07:36:48;3.40;;;1.08;;
42702;SDS011;28341;52.064;4.920;2023-07-20T07:38:55;1.92;;;0.70;;
42702;SDS011;28341;52.064;4.920;2023-07-20T07:40:59;2.78;;;0.95;;
42702;SDS011;28341;52.064;4.920;2023-07-20T07:43:03;5.50;;;0.95;;
42702;SDS011;28341;52.064;4.920;2023-07-20T07:45:05;1.83;;;1.10;;
42702;SDS011;28341;52.064;4.920;2023-07-20T07:47:11;0.90;;;0.68;;
42702;SDS011;28341;52.064;4.920;2023-07-20T07:49:15;4.18;;;1.20;;
42702;SDS011;28341;52.064;4.920;2023-07-20T07:51:19;9.35;;;1.67;;
42702;SDS011;28341;52.064;4.920;2023-07-20T07:53:23;1.98;;;0.80;;
42702;SDS011;28341;52.064;4.920;2023-07-20T07:55:31;1.83;;;0.90;;
42702;SDS011;28341;52.064;4.920;2023-07-20T07:57:35;3.63;;;1.15;;
42702;SDS011;28341;52.064;4.920;2023-07-20T07:59:39;1.38;;;0.90;;
42702;SDS011;28341;52.064;4.920;2023-07-20T08:01:43;3.25;;;1.08;;
42702;SDS011;28341;52.064;4.920;2023-07-20T08:03:44;2.33;;;0.80;;
42702;SDS011;28341;52.064;4.920;2023-07-20T08:05:49;4.47;;;0.90;;
42702;SDS011;28341;52.064;4.920;2023-07-20T08:07:53;2.75;;;1.08;;
42702;SDS011;28341;52.064;4.920;2023-07-20T08:09:57;1.98;;;1.00;;
42702;SDS011;28341;52.064;4.920;2023-07-20T08:12:04;1.70;;;0.80;;
42702;SDS011;28341;52.064;4.920;2023-07-20T08:14:09;4.22;;;0.93;;
42702;SDS011;28341;52.064;4.920;2023-07-20T08:16:13;5.78;;;1.20;;
42702;SDS011;28341;52.064;4.920;2023-07-20T08:18:17;3.08;;;1.10;;
42702;SDS011;28341;52.064;4.920;2023-07-20T08:20:19;1.95;;;1.10;;
42702;SDS011;28341;52.064;4.920;2023-07-20T08:22:26;16.58;;;2.08;;
42702;SDS011;28341;52.064;4.920;2023-07-20T08:24:30;2.53;;;1.20;;
42702;SDS011;28341;52.064;4.920;2023-07-20T08:26:34;2.25;;;0.80;;
42702;SDS011;28341;52.064;4.920;2023-07-20T08:28:41;3.92;;;1.30;;
42702;SDS011;28341;52.064;4.920;2023-07-20T08:30:48;2.55;;;0.93;;
42702;SDS011;28341;52.064;4.920;2023-07-20T08:32:52;4.00;;;0.88;;
42702;SDS011;28341;52.064;4.920;2023-07-20T08:34:57;3.08;;;1.10;;
42702;SDS011;28341;52.064;4.920;2023-07-20T08:36:58;3.42;;;1.00;;
42702;SDS011;28341;52.064;4.920;2023-07-20T08:39:02;3.83;;;1.25;;
42702;SDS011;28341;52.064;4.920;2023-07-20T08:41:06;3.53;;;0.90;;
42702;SDS011;28341;52.064;4.920;2023-07-20T08:43:12;2.30;;;0.98;;
42702;SDS011;28341;52.064;4.920;2023-07-20T08:45:20;1.65;;;0.80;;
42702;SDS011;28341;52.064;4.920;2023-07-20T08:47:25;1.70;;;0.90;;
42702;SDS011;28341;52.064;4.920;2023-07-20T08:49:29;0.98;;;0.68;;
42702;SDS011;28341;52.064;4.920;2023-07-20T08:51:34;2.08;;;0.70;;
42702;SDS011;28341;52.064;4.920;2023-07-20T08:53:36;3.53;;;0.90;;
42702;SDS011;28341;52.064;4.920;2023-07-20T08:55:41;1.65;;;0.73;;
42702;SDS011;28341;52.064;4.920;2023-07-20T08:57:46;2.10;;;0.80;;
42702;SDS011;28341;52.064;4.920;2023-07-20T08:59:53;1.65;;;0.80;;
42702;SDS011;28341;52.064;4.920;2023-07-20T09:02:00;2.35;;;0.90;;
42702;SDS011;28341;52.064;4.920;2023-07-20T09:04:05;1.42;;;0.98;;
42702;SDS011;28341;52.064;4.920;2023-07-20T09:06:10;1.98;;;0.90;;
42702;SDS011;28341;52.064;4.920;2023-07-20T09:08:14;2.88;;;0.95;;
42702;SDS011;28341;52.064;4.920;2023-07-20T09:10:18;3.38;;;0.90;;
42702;SDS011;28341;52.064;4.920;2023-07-20T09:12:21;1.30;;;0.70;;
42702;SDS011;28341;52.064;4.920;2023-07-20T09:14:25;2.05;;;0.90;;
42702;SDS011;28341;52.064;4.920;2023-07-20T09:16:29;4.22;;;0.90;;
42702;SDS011;28341;52.064;4.920;2023-07-20T09:18:36;1.98;;;1.00;;
42702;SDS011;28341;52.064;4.920;2023-07-20T09:20:40;2.75;;;0.95;;
42702;SDS011;28341;52.064;4.920;2023-07-20T09:22:45;5.03;;;1.25;;
42702;SDS011;28341;52.064;4.920;2023-07-20T09:24:50;3.63;;;0.90;;
42702;SDS011;28341;52.064;4.920;2023-07-20T09:26:55;1.70;;;0.90;;
42702;SDS011;28341;52.064;4.920;2023-07-20T09:28:59;2.08;;;0.70;;
42702;SDS011;28341;52.064;4.920;2023-07-20T09:31:04;1.17;;;0.73;;
42702;SDS011;28341;52.064;4.920;2023-07-20T09:33:21;3.83;;;0.88;;
42702;SDS011;28341;52.064;4.920;2023-07-20T09:35:27;1.55;;;0.77;;
42702;SDS011;28341;52.064;4.920;2023-07-20T09:37:32;3.60;;;0.70;;
42702;SDS011;28341;52.064;4.920;2023-07-20T09:39:41;2.60;;;0.70;;
42702;SDS011;28341;52.064;4.920;2023-07-20T09:41:46;1.83;;;0.70;;
42702;SDS011;28341;52.064;4.920;2023-07-20T09:43:51;1.13;;;0.63;;
42702;SDS011;28341;52.064;4.920;2023-07-20T09:45:57;2.08;;;0.70;;
42702;SDS011;28341;52.064;4.920;2023-07-20T09:48:04;2.70;;;0.82;;
42702;SDS011;28341;52.064;4.920;2023-07-20T09:50:09;2.80;;;0.90;;
42702;SDS011;28341;52.064;4.920;2023-07-20T09:52:16;2.67;;;1.00;;
42702;SDS011;28341;52.064;4.920;2023-07-20T09:54:20;2.55;;;1.00;;
42702;SDS011;28341;52.064;4.920;2023-07-20T09:56:25;3.00;;;0.95;;
42702;SDS011;28341;52.064;4.920;2023-07-20T09:58:30;1.50;;;0.70;;
42702;SDS011;28341;52.064;4.920;2023-07-20T10:00:35;1.70;;;0.70;;
42702;SDS011;28341;52.064;4.920;2023-07-20T10:04:45;1.70;;;0.55;;
42702;SDS011;28341;52.064;4.920;2023-07-20T10:06:50;2.35;;;0.65;;
42702;SDS011;28341;52.064;4.920;2023-07-20T10:08:59;1.40;;;0.80;;
42702;SDS011;28341;52.064;4.920;2023-07-20T10:11:08;2.45;;;0.90;;
42702;SDS011;28341;52.064;4.920;2023-07-20T10:13:14;1.85;;;0.82;;
42702;SDS011;28341;52.064;4.920;2023-07-20T10:15:23;2.78;;;0.73;;
42702;SDS011;28341;52.064;4.920;2023-07-20T10:17:30;2.05;;;0.70;;
42702;SDS011;28341;52.064;4.920;2023-07-20T10:19:33;1.00;;;0.60;;
42702;SDS011;28341;52.064;4.920;2023-07-20T10:21:47;2.45;;;1.00;;
42702;SDS011;28341;52.064;4.920;2023-07-20T10:23:52;5.75;;;0.80;;
42702;SDS011;28341;52.064;4.920;2023-07-20T10:25:59;1.70;;;0.73;;
42702;SDS011;28341;52.064;4.920;2023-07-20T10:28:05;1.88;;;0.90;;
42702;SDS011;28341;52.064;4.920;2023-07-20T10:30:09;3.95;;;1.20;;
42702;SDS011;28341;52.064;4.920;2023-07-20T10:32:14;1.83;;;0.90;;
42702;SDS011;28341;52.064;4.920;2023-07-20T10:34:18;3.15;;;1.08;;
42702;SDS011;28341;52.064;4.920;2023-07-20T10:36:24;2.03;;;1.00;;
42702;SDS011;28341;52.064;4.920;2023-07-20T10:38:38;3.25;;;1.10;;
42702;SDS011;28341;52.064;4.920;2023-07-20T10:40:43;2.53;;;0.90;;
42702;SDS011;28341;52.064;4.920;2023-07-20T10:43:03;2.95;;;1.08;;
42702;SDS011;28341;52.064;4.920;2023-07-20T10:45:09;2.85;;;1.02;;
42702;SDS011;28341;52.064;4.920;2023-07-20T10:47:14;2.08;;;0.98;;
42702;SDS011;28341;52.064;4.920;2023-07-20T10:49:17;1.63;;;0.93;;
42702;SDS011;28341;52.064;4.920;2023-07-20T10:51:26;1.83;;;0.80;;
42702;SDS011;28341;52.064;4.920;2023-07-20T10:53:30;1.88;;;0.90;;
42702;SDS011;28341;52.064;4.920;2023-07-20T10:55:35;1.92;;;0.75;;
42702;SDS011;28341;52.064;4.920;2023-07-20T10:57:39;1.83;;;0.60;;
42702;SDS011;28341;52.064;4.920;2023-07-20T10:59:45;1.70;;;0.70;;
42702;SDS011;28341;52.064;4.920;2023-07-20T11:01:48;3.47;;;0.70;;
42702;SDS011;28341;52.064;4.920;2023-07-20T11:03:56;1.80;;;0.93;;
42702;SDS011;28341;52.064;4.920;2023-07-20T11:08:38;2.00;;;0.85;;
42702;SDS011;28341;52.064;4.920;2023-07-20T11:10:41;3.25;;;0.98;;
42702;SDS011;28341;52.064;4.920;2023-07-20T11:15:19;1.75;;;0.70;;
42702;SDS011;28341;52.064;4.920;2023-07-20T11:17:28;2.70;;;0.95;;
42702;SDS011;28341;52.064;4.920;2023-07-20T11:19:33;2.58;;;0.90;;
42702;SDS011;28341;52.064;4.920;2023-07-20T11:21:38;1.27;;;0.57;;
42702;SDS011;28341;52.064;4.920;2023-07-20T11:23:45;1.75;;;0.70;;
42702;SDS011;28341;52.064;4.920;2023-07-20T11:25:51;2.00;;;0.65;;
42702;SDS011;28341;52.064;4.920;2023-07-20T11:27:55;1.50;;;0.70;;
42702;SDS011;28341;52.064;4.920;2023-07-20T11:29:58;1.58;;;0.80;;
42702;SDS011;28341;52.064;4.920;2023-07-20T11:32:05;1.67;;;0.95;;
42702;SDS011;28341;52.064;4.920;2023-07-20T11:34:11;2.13;;;1.00;;
42702;SDS011;28341;52.064;4.920;2023-07-20T11:36:16;1.70;;;0.80;;
42702;SDS011;28341;52.064;4.920;2023-07-20T11:38:20;2.03;;;0.90;;
42702;SDS011;28341;52.064;4.920;2023-07-20T11:40:24;3.00;;;0.90;;
42702;SDS011;28341;52.064;4.920;2023-07-20T11:42:28;3.28;;;0.82;;
42702;SDS011;28341;52.064;4.920;2023-07-20T11:44:32;2.25;;;0.90;;
42702;SDS011;28341;52.064;4.920;2023-07-20T11:46:37;2.88;;;0.88;;
42702;SDS011;28341;52.064;4.920;2023-07-20T11:48:43;2.13;;;0.90;;
42702;SDS011;28341;52.064;4.920;2023-07-20T11:50:45;1.45;;;0.82;;
42702;SDS011;28341;52.064;4.920;2023-07-20T11:52:49;2.92;;;1.10;;
42702;SDS011;28341;52.064;4.920;2023-07-20T11:54:53;2.30;;;0.90;;
42702;SDS011;28341;52.064;4.920;2023-07-20T11:57:00;1.45;;;1.08;;
42702;SDS011;28341;52.064;4.920;2023-07-20T11:59:06;2.70;;;1.17;;
42702;SDS011;28341;52.064;4.920;2023-07-20T12:01:11;1.60;;;1.00;;
42702;SDS011;28341;52.064;4.920;2023-07-20T12:03:15;2.75;;;1.08;;
42702;SDS011;28341;52.064;4.920;2023-07-20T12:05:22;3.15;;;1.15;;
42702;SDS011;28341;52.064;4.920;2023-07-20T12:07:27;4.00;;;1.20;;
42702;SDS011;28341;52.064;4.920;2023-07-20T12:09:31;1.65;;;0.95;;
42702;SDS011;28341;52.064;4.920;2023-07-20T12:11:36;4.45;;;1.42;;
42702;SDS011;28341;52.064;4.920;2023-07-20T12:13:42;2.47;;;1.20;;
42702;SDS011;28341;52.064;4.920;2023-07-20T12:15:44;1.63;;;0.90;;
42702;SDS011;28341;52.064;4.920;2023-07-20T12:17:52;3.33;;;1.50;;
42702;SDS011;28341;52.064;4.920;2023-07-20T12:19:57;4.60;;;1.17;;
42702;SDS011;28341;52.064;4.920;2023-07-20T12:22:04;2.65;;;0.98;;
42702;SDS011;28341;52.064;4.920;2023-07-20T12:24:10;2.05;;;0.80;;
42702;SDS011;28341;52.064;4.920;2023-07-20T12:26:14;2.17;;;0.80;;
42702;SDS011;28341;52.064;4.920;2023-07-20T12:28:19;4.28;;;1.20;;
42702;SDS011;28341;52.064;4.920;2023-07-20T12:30:23;1.35;;;0.80;;
42702;SDS011;28341;52.064;4.920;2023-07-20T12:32:27;1.83;;;0.73;;
42702;SDS011;28341;52.064;4.920;2023-07-20T12:34:28;1.33;;;0.70;;
42702;SDS011;28341;52.064;4.920;2023-07-20T12:36:32;1.35;;;0.85;;
42702;SDS011;28341;52.064;4.920;2023-07-20T12:38:39;1.33;;;0.95;;